Time;durP1;ratioP1;P1;durP2;ratioP2;P2;SDS_P1;SDS_P2;PMS_P1;PMS_P2;Temp;Humidity;BMP_temperature;BMP_pressure;BME280_temperature;BME280_humidity;BME280_pressure;Samples;Min_cycle;Max_cycle;Signal;HPM_P1;HPM_P2
2020/12/31 00:01:27;;;;;;;7.18;5.88;;;4.10;1.00;;;;;;5091202;28;20854;-63
2020/12/31 00:03:54;;;;;;;6.70;6.00;;;4.00;1.00;;;;;;5090820;28;20476;-64
2020/12/31 00:06:20;;;;;;;7.13;6.40;;;4.00;1.00;;;;;;5091291;28;20405;-64
2020/12/31 00:08:46;;;;;;;8.77;6.50;;;4.10;1.00;;;;;;5091213;28;20424;-64
2020/12/31 00:11:13;;;;;;;7.63;6.13;;;4.10;1.00;;;;;;5091704;28;21031;-64
2020/12/31 00:13:40;;;;;;;7.00;6.20;;;4.00;1.00;;;;;;5091384;28;20843;-64
2020/12/31 00:16:06;;;;;;;7.88;6.10;;;4.00;1.00;;;;;;5090848;28;20423;-64
2020/12/31 00:18:32;;;;;;;6.93;5.90;;;4.00;1.00;;;;;;5091487;28;20467;-64
2020/12/31 00:20:58;;;;;;;7.43;5.70;;;4.00;1.00;;;;;;5091447;28;20421;-65
2020/12/31 00:23:24;;;;;;;7.15;6.10;;;4.00;1.00;;;;;;5091276;28;20430;-64
2020/12/31 00:25:52;;;;;;;7.05;5.95;;;4.00;1.00;;;;;;5091248;28;20412;-64
2020/12/31 00:28:19;;;;;;;6.97;6.28;;;4.00;1.00;;;;;;5091295;28;20413;-64
2020/12/31 00:30:47;;;;;;;8.60;6.50;;;4.00;1.00;;;;;;5091370;28;20845;-64
2020/12/31 00:33:14;;;;;;;8.02;6.70;;;4.00;1.00;;;;;;5091444;28;20402;-64
2020/12/31 00:35:40;;;;;;;8.02;6.35;;;3.90;1.00;;;;;;5091145;28;20406;-64
2020/12/31 00:38:06;;;;;;;8.13;6.60;;;4.00;1.00;;;;;;5091833;28;20880;-64
2020/12/31 00:40:33;;;;;;;7.22;6.45;;;4.00;1.00;;;;;;5091192;28;20462;-64
2020/12/31 00:42:59;;;;;;;8.68;7.03;;;4.00;1.00;;;;;;5091586;28;20448;-64
2020/12/31 00:45:26;;;;;;;7.85;7.00;;;4.00;1.00;;;;;;5090301;28;20412;-64
2020/12/31 00:47:52;;;;;;;7.80;6.90;;;3.90;1.00;;;;;;5090757;28;20908;-64
2020/12/31 00:50:19;;;;;;;7.50;6.38;;;3.90;1.00;;;;;;5091024;28;20406;-64
2020/12/31 00:52:45;;;;;;;8.23;7.05;;;3.90;1.00;;;;;;5091332;28;20437;-63
2020/12/31 00:55:11;;;;;;;8.70;7.75;;;3.70;1.00;;;;;;5095308;28;20882;-64
2020/12/31 00:57:37;;;;;;;8.52;7.47;;;3.70;1.00;;;;;;5094669;28;20406;-63
2020/12/31 01:00:05;;;;;;;9.57;7.65;;;3.70;1.00;;;;;;5094544;28;20422;-63
2020/12/31 01:02:31;;;;;;;9.48;7.70;;;3.50;1.00;;;;;;5095007;28;20409;-64
2020/12/31 01:04:58;;;;;;;10.32;8.13;;;3.50;1.00;;;;;;5094776;28;20414;-64
2020/12/31 01:07:24;;;;;;;8.32;7.30;;;3.40;1.00;;;;;;5094410;28;20414;-64
2020/12/31 01:09:50;;;;;;;10.23;7.75;;;3.40;1.00;;;;;;5094785;28;20397;-65
2020/12/31 01:12:16;;;;;;;11.70;8.30;;;3.40;1.00;;;;;;5095171;28;20406;-64
2020/12/31 01:14:42;;;;;;;13.05;7.93;;;3.40;1.00;;;;;;5094156;28;20783;-64
2020/12/31 01:17:08;;;;;;;9.37;8.30;;;3.30;1.00;;;;;;5094306;28;20420;-64
2020/12/31 01:19:35;;;;;;;11.43;8.88;;;3.20;1.00;;;;;;5094696;28;20429;-64
2020/12/31 01:22:01;;;;;;;9.48;8.07;;;3.20;1.00;;;;;;5094049;28;20455;-64
2020/12/31 01:24:27;;;;;;;10.98;8.30;;;3.20;1.00;;;;;;5094536;28;20406;-64
2020/12/31 01:26:54;;;;;;;9.48;8.48;;;3.30;1.00;;;;;;5093732;28;20410;-64
2020/12/31 01:29:20;;;;;;;11.13;8.15;;;3.20;1.00;;;;;;5094974;28;20447;-64
2020/12/31 01:31:47;;;;;;;11.85;9.20;;;3.30;1.00;;;;;;5094375;28;20406;-64
2020/12/31 01:34:13;;;;;;;10.73;8.60;;;3.30;1.00;;;;;;5093832;28;20778;-64
2020/12/31 01:36:39;;;;;;;10.07;8.65;;;3.30;1.00;;;;;;5093756;28;20410;-64
2020/12/31 01:39:06;;;;;;;11.50;8.90;;;3.10;1.00;;;;;;5093977;28;20430;-64
2020/12/31 01:41:32;;;;;;;10.90;8.70;;;3.10;1.00;;;;;;5093923;28;20409;-64
2020/12/31 01:44:06;;;;;;;10.82;8.20;;;3.10;1.00;;;;;;5093942;28;20418;-64
2020/12/31 01:46:34;;;;;;;9.63;8.17;;;3.10;15.00;;;;;;5093274;28;20416;-64
2020/12/31 01:49:02;;;;;;;11.18;8.40;;;3.10;23.20;;;;;;5093711;28;20410;-64
2020/12/31 01:51:29;;;;;;;9.30;8.10;;;3.00;19.40;;;;;;5093427;28;20405;-64
2020/12/31 01:53:56;;;;;;;11.00;8.65;;;3.00;72.00;;;;;;5093650;28;20832;-64
2020/12/31 01:56:28;;;;;;;11.35;8.90;;;3.00;89.30;;;;;;5092918;28;20422;-64
2020/12/31 01:58:54;;;;;;;11.27;9.00;;;3.00;89.20;;;;;;5093619;28;20474;-64
2020/12/31 02:01:21;;;;;;;11.00;8.63;;;3.00;85.60;;;;;;5093458;28;20413;-64
2020/12/31 02:03:47;;;;;;;11.50;8.85;;;3.00;96.40;;;;;;5093110;28;20406;-64
2020/12/31 02:06:13;;;;;;;11.52;8.70;;;3.00;93.20;;;;;;5091934;28;20409;-64
2020/12/31 02:08:40;;;;;;;10.40;8.90;;;3.00;99.90;;;;;;5092853;28;20409;-64
2020/12/31 02:11:06;;;;;;;10.43;9.00;;;3.00;99.90;;;;;;5093518;28;20413;-64
2020/12/31 02:13:33;;;;;;;10.37;8.27;;;3.00;99.90;;;;;;5093331;28;20420;-64
2020/12/31 02:16:01;;;;;;;9.60;8.60;;;3.10;99.90;;;;;;5092751;28;20774;-64
2020/12/31 02:18:27;;;;;;;9.90;8.30;;;3.10;99.90;;;;;;5093000;28;20420;-64
2020/12/31 02:20:55;;;;;;;12.73;9.07;;;2.90;99.90;;;;;;5092946;28;20779;-65
2020/12/31 02:23:22;;;;;;;10.70;8.57;;;2.90;99.90;;;;;;5092895;28;20410;-64
2020/12/31 02:25:48;;;;;;;11.30;8.90;;;3.00;99.90;;;;;;5094951;28;21020;-64
2020/12/31 02:28:14;;;;;;;10.80;8.63;;;3.00;99.90;;;;;;5094210;28;20410;-65
2020/12/31 02:30:40;;;;;;;12.73;9.70;;;3.00;99.90;;;;;;5095705;28;20406;-64
2020/12/31 02:33:06;;;;;;;10.90;8.52;;;3.10;99.90;;;;;;5094542;28;20405;-64
2020/12/31 02:35:32;;;;;;;9.02;7.93;;;3.10;99.90;;;;;;5093713;28;20420;-64
2020/12/31 02:37:58;;;;;;;9.95;8.55;;;3.10;99.90;;;;;;5092780;28;20413;-65
2020/12/31 02:40:25;;;;;;;10.23;8.05;;;3.10;99.90;;;;;;5092593;28;20426;-65
2020/12/31 02:42:51;;;;;;;9.35;8.35;;;3.20;99.90;;;;;;5092496;28;20890;-64
2020/12/31 02:45:17;;;;;;;11.63;9.00;;;3.30;99.90;;;;;;5092306;28;20416;-64
2020/12/31 02:47:43;;;;;;;9.80;8.40;;;3.30;99.90;;;;;;5092325;28;20412;-64
2020/12/31 02:50:10;;;;;;;10.30;8.83;;;3.40;92.40;;;;;;5092415;28;20410;-64
2020/12/31 02:52:36;;;;;;;10.48;7.72;;;3.30;65.90;;;;;;5092172;28;20414;-64
2020/12/31 02:55:02;;;;;;;11.60;8.23;;;3.30;46.60;;;;;;5092594;28;20436;-64
2020/12/31 02:57:29;;;;;;;9.35;7.75;;;3.30;35.30;;;;;;5091995;28;20766;-64
2020/12/31 02:59:55;;;;;;;9.57;8.15;;;3.30;32.00;;;;;;5092496;28;20429;-64
2020/12/31 03:02:21;;;;;;;9.48;7.80;;;3.30;33.00;;;;;;5092321;28;20934;-64
2020/12/31 03:04:47;;;;;;;9.82;8.13;;;3.30;44.90;;;;;;5092288;28;20508;-64
2020/12/31 03:07:14;;;;;;;9.38;8.32;;;3.30;37.10;;;;;;5091960;28;20418;-64
2020/12/31 03:09:40;;;;;;;11.35;8.95;;;3.30;47.70;;;;;;5091900;28;20882;-64
2020/12/31 03:12:06;;;;;;;9.90;8.50;;;3.20;40.10;;;;;;5092293;28;20480;-64
2020/12/31 03:14:33;;;;;;;9.30;8.30;;;3.30;53.60;;;;;;5091826;28;20786;-64
2020/12/31 03:16:59;;;;;;;9.85;8.57;;;3.30;31.40;;;;;;5091473;28;20434;-64
2020/12/31 03:19:25;;;;;;;9.77;8.10;;;3.30;26.70;;;;;;5092042;28;20444;-64
2020/12/31 03:21:51;;;;;;;10.35;8.63;;;3.30;35.20;;;;;;5091533;28;20414;-64
2020/12/31 03:24:17;;;;;;;11.00;8.18;;;3.30;38.20;;;;;;5092037;28;20416;-64
2020/12/31 03:26:43;;;;;;;10.52;8.27;;;3.30;54.80;;;;;;5091489;28;20444;-64
2020/12/31 03:29:09;;;;;;;9.52;8.52;;;3.20;69.70;;;;;;5091765;28;20464;-64
2020/12/31 03:31:36;;;;;;;10.40;8.47;;;3.20;86.20;;;;;;5091716;28;20457;-64
2020/12/31 03:34:03;;;;;;;10.38;8.05;;;3.30;75.80;;;;;;5091256;28;20913;-64
2020/12/31 03:36:29;;;;;;;10.48;7.90;;;3.20;75.30;;;;;;5091227;28;20410;-64
2020/12/31 03:38:57;;;;;;;10.60;8.18;;;3.20;99.80;;;;;;5091456;28;20414;-63
2020/12/31 03:41:23;;;;;;;11.10;8.93;;;3.10;99.90;;;;;;5091340;28;20418;-64
2020/12/31 03:43:49;;;;;;;11.73;7.77;;;3.00;99.90;;;;;;5091616;28;20908;-64
2020/12/31 03:46:15;;;;;;;9.40;8.05;;;3.00;99.90;;;;;;5091002;28;20417;-64
2020/12/31 03:48:42;;;;;;;10.32;8.60;;;3.00;99.90;;;;;;5091421;28;20759;-64
2020/12/31 03:51:08;;;;;;;9.02;7.72;;;3.00;99.90;;;;;;5091355;28;20418;-64
2020/12/31 03:53:34;;;;;;;10.60;8.32;;;3.00;99.90;;;;;;5091622;28;20809;-64
2020/12/31 03:56:00;;;;;;;10.13;7.70;;;2.90;99.90;;;;;;5091077;28;20410;-64
2020/12/31 03:58:26;;;;;;;10.70;8.48;;;2.90;99.90;;;;;;5090948;28;20894;-64
2020/12/31 04:00:52;;;;;;;9.85;8.40;;;2.90;99.90;;;;;;5091409;28;20410;-64
2020/12/31 04:03:18;;;;;;;11.23;8.20;;;2.80;99.90;;;;;;5090753;28;20921;-64
2020/12/31 04:05:45;;;;;;;9.82;8.68;;;2.80;99.90;;;;;;5091221;28;20410;-64
2020/12/31 04:08:11;;;;;;;10.27;8.33;;;2.80;99.90;;;;;;5091156;28;20756;-65
2020/12/31 04:10:38;;;;;;;11.30;7.90;;;2.90;99.90;;;;;;5091265;28;20422;-64
2020/12/31 04:13:04;;;;;;;10.07;8.23;;;3.00;99.90;;;;;;5091229;28;20410;-64
2020/12/31 04:15:30;;;;;;;9.95;8.48;;;3.00;99.90;;;;;;5090951;28;20402;-64
2020/12/31 04:17:56;;;;;;;10.85;8.65;;;2.80;99.90;;;;;;5090643;28;20429;-64
2020/12/31 04:20:22;;;;;;;10.93;8.47;;;2.80;99.90;;;;;;5090984;28;20480;-64
2020/12/31 04:22:49;;;;;;;9.50;8.20;;;2.80;99.90;;;;;;5091019;28;20409;-64
2020/12/31 04:25:15;;;;;;;9.70;8.40;;;2.80;99.90;;;;;;5091091;28;20786;-64
2020/12/31 04:27:41;;;;;;;9.60;7.63;;;2.80;99.90;;;;;;5089743;28;20413;-64
2020/12/31 04:30:07;;;;;;;9.07;8.18;;;2.80;99.90;;;;;;5090782;28;20409;-64
2020/12/31 04:32:33;;;;;;;9.40;8.00;;;2.80;99.90;;;;;;5090480;28;20467;-64
2020/12/31 04:34:59;;;;;;;13.27;8.38;;;2.70;99.90;;;;;;5091176;28;20464;-64
2020/12/31 04:37:25;;;;;;;9.10;8.13;;;2.70;99.90;;;;;;5091140;28;20414;-64
2020/12/31 04:39:52;;;;;;;9.30;7.70;;;2.70;99.90;;;;;;5090299;28;20426;-64
2020/12/31 04:42:18;;;;;;;10.07;7.50;;;2.70;99.90;;;;;;5090247;28;20414;-64
2020/12/31 04:44:45;;;;;;;8.80;7.60;;;2.70;99.90;;;;;;5090552;28;20447;-64
2020/12/31 04:47:19;;;;;;;8.88;7.90;;;2.80;99.90;;;;;;5090344;28;20914;-64
2020/12/31 04:49:51;;;;;;;9.45;8.23;;;2.70;99.90;;;;;;5090801;28;20421;-64
2020/12/31 04:52:17;;;;;;;10.75;9.15;;;2.70;99.90;;;;;;5090598;28;20417;-64
2020/12/31 04:54:44;;;;;;;9.88;7.70;;;2.70;99.90;;;;;;5090677;28;20947;-64
2020/12/31 04:57:11;;;;;;;8.63;7.35;;;2.70;99.90;;;;;;5090040;28;20767;-64
2020/12/31 04:59:38;;;;;;;9.15;7.55;;;2.70;99.90;;;;;;5090342;28;21004;-64
2020/12/31 05:02:06;;;;;;;10.13;8.10;;;2.70;99.90;;;;;;5091029;28;20409;-64
2020/12/31 05:04:32;;;;;;;10.02;8.27;;;2.80;99.90;;;;;;5090767;28;20412;-64
2020/12/31 05:06:59;;;;;;;10.82;7.70;;;2.80;99.90;;;;;;5090437;28;20414;-63
2020/12/31 05:09:25;;;;;;;10.80;7.60;;;2.90;99.90;;;;;;5090751;28;20434;-63
2020/12/31 05:11:52;;;;;;;9.02;7.90;;;2.90;99.90;;;;;;5090595;28;20471;-65
2020/12/31 05:14:30;;;;;;;8.57;7.15;;;2.80;99.90;;;;;;5090429;28;20414;-65
2020/12/31 05:17:10;;;;;;;8.13;7.25;;;2.80;99.90;;;;;;5090103;28;20410;-65
2020/12/31 05:19:37;;;;;;;9.32;7.05;;;2.80;99.90;;;;;;5090354;28;20422;-65
2020/12/31 05:22:11;;;;;;;7.65;6.78;;;2.80;99.90;;;;;;5089974;28;20405;-65
2020/12/31 05:24:38;;;;;;;7.97;7.05;;;2.80;99.90;;;;;;5090255;28;20959;-65
2020/12/31 05:27:16;;;;;;;7.80;6.78;;;2.90;99.90;;;;;;5090309;28;20417;-64
2020/12/31 05:29:53;;;;;;;7.93;6.72;;;2.90;99.90;;;;;;5090167;28;20414;-65
2020/12/31 05:32:21;;;;;;;8.57;7.55;;;2.90;99.90;;;;;;5090458;28;20410;-65
2020/12/31 05:34:47;;;;;;;8.80;7.13;;;2.90;99.90;;;;;;5090058;28;20414;-63
2020/12/31 05:37:14;;;;;;;6.80;6.10;;;2.90;99.90;;;;;;5089812;28;20498;-63
2020/12/31 05:39:55;;;;;;;9.32;7.20;;;3.00;99.90;;;;;;5089894;28;20940;-64
2020/12/31 05:42:21;;;;;;;9.10;7.37;;;3.00;99.90;;;;;;5094062;28;20812;-63
2020/12/31 05:44:59;;;;;;;7.70;6.70;;;2.90;99.90;;;;;;5094175;28;20417;-63
2020/12/31 05:47:25;;;;;;;7.40;6.60;;;2.90;99.90;;;;;;5093216;28;20405;-63
2020/12/31 05:49:53;;;;;;;7.50;6.55;;;3.00;99.90;;;;;;5093988;28;20412;-63
2020/12/31 05:52:33;;;;;;;8.57;7.13;;;3.00;99.90;;;;;;5093578;28;20414;-63
2020/12/31 05:55:01;;;;;;;7.78;6.57;;;3.10;99.90;;;;;;5093653;28;20414;-63
2020/12/31 05:57:43;;;;;;;8.95;6.80;;;2.90;99.90;;;;;;5093113;28;21152;-63
2020/12/31 06:00:13;;;;;;;7.25;6.25;;;2.90;99.90;;;;;;5093074;28;20429;-63
2020/12/31 06:02:43;;;;;;;7.40;6.38;;;2.90;99.90;;;;;;5093515;28;20416;-63
2020/12/31 06:05:13;;;;;;;7.32;6.53;;;3.00;99.90;;;;;;5093447;28;20417;-63
2020/12/31 06:07:42;;;;;;;7.85;6.63;;;3.00;99.90;;;;;;5093140;28;20432;-63
2020/12/31 06:10:10;;;;;;;6.63;5.93;;;3.00;99.90;;;;;;5093110;28;20744;-63
2020/12/31 06:12:47;;;;;;;6.60;5.90;;;3.00;99.90;;;;;;5093188;28;20770;-63
2020/12/31 06:15:17;;;;;;;7.63;6.25;;;3.00;99.90;;;;;;5093247;28;20930;-63
2020/12/31 06:17:45;;;;;;;7.20;6.00;;;3.00;99.90;;;;;;5092825;28;20417;-63
2020/12/31 06:20:12;;;;;;;7.40;6.32;;;2.90;99.90;;;;;;5093057;28;20509;-63
2020/12/31 06:23:00;;;;;;;7.07;6.38;;;2.90;99.90;;;;;;5093062;28;20405;-63
2020/12/31 06:25:33;;;;;;;8.03;6.50;;;2.90;99.90;;;;;;5090447;28;20444;-63
2020/12/31 06:28:04;;;;;;;7.15;6.43;;;2.80;99.90;;;;;;5092712;28;20409;-63
2020/12/31 06:30:34;;;;;;;6.75;5.63;;;2.90;99.90;;;;;;5092860;28;20410;-63
2020/12/31 06:33:06;;;;;;;6.00;5.40;;;2.90;99.90;;;;;;5093068;28;20909;-63
2020/12/31 06:35:33;;;;;;;6.97;6.15;;;2.90;99.90;;;;;;5092624;28;20417;-63
2020/12/31 06:37:59;;;;;;;7.65;6.22;;;2.90;99.90;;;;;;5092511;28;20786;-63
2020/12/31 06:40:27;;;;;;;6.50;5.80;;;2.80;99.90;;;;;;5092862;28;20426;-63
2020/12/31 06:43:08;;;;;;;6.50;5.90;;;2.90;99.90;;;;;;5092677;28;20410;-63
2020/12/31 06:45:43;;;;;;;6.38;5.15;;;2.90;99.90;;;;;;5092986;28;20422;-62
2020/12/31 06:48:35;;;;;;;6.45;5.60;;;2.80;99.90;;;;;;5092312;28;20410;-63
2020/12/31 06:51:03;;;;;;;6.30;5.18;;;2.80;99.90;;;;;;5092973;28;20406;-63
2020/12/31 06:53:34;;;;;;;6.70;5.18;;;2.90;99.90;;;;;;5092390;28;20406;-62
2020/12/31 06:56:01;;;;;;;5.60;5.00;;;2.90;99.90;;;;;;5092519;28;20414;-63
2020/12/31 06:58:27;;;;;;;5.78;5.18;;;2.90;99.90;;;;;;5092159;28;20426;-63
2020/12/31 07:00:55;;;;;;;5.78;4.93;;;2.90;99.90;;;;;;5092138;28;20421;-63
2020/12/31 07:03:47;;;;;;;6.22;5.30;;;2.90;99.90;;;;;;5092275;28;20467;-63
2020/12/31 07:06:26;;;;;;;6.07;5.05;;;2.90;99.90;;;;;;5091748;28;20433;-63
2020/12/31 07:08:54;;;;;;;5.68;5.07;;;3.00;99.90;;;;;;5071650;28;20412;-63
2020/12/31 07:11:28;;;;;;;4.93;4.43;;;2.90;99.90;;;;;;5071937;28;20407;-63
2020/12/31 07:13:55;;;;;;;4.40;4.00;;;2.90;99.90;;;;;;5072281;28;20411;-63
2020/12/31 07:16:40;;;;;;;5.45;4.18;;;2.90;99.90;;;;;;5071648;28;20599;-63
2020/12/31 07:19:07;;;;;;;4.30;3.90;;;2.80;99.90;;;;;;5071368;28;20452;-63
2020/12/31 07:21:36;;;;;;;5.20;4.40;;;2.90;99.90;;;;;;5071890;28;20454;-62
2020/12/31 07:24:21;;;;;;;5.23;4.73;;;2.70;99.90;;;;;;5071762;28;20417;-63
2020/12/31 07:26:48;;;;;;;5.05;4.40;;;2.70;99.90;;;;;;5071097;28;20900;-63
2020/12/31 07:29:24;;;;;;;5.10;4.60;;;2.80;1.00;;;;;;5071507;28;20911;-64
2020/12/31 07:31:51;;;;;;;5.40;4.57;;;2.80;99.90;;;;;;5071836;28;20412;-62
2020/12/31 07:34:25;;;;;;;4.88;4.38;;;2.80;1.00;;;;;;5071515;28;20416;-63
2020/12/31 07:36:59;;;;;;;5.07;4.57;;;2.80;1.00;;;;;;5070808;28;20431;-63
2020/12/31 07:39:26;;;;;;;4.32;3.92;;;2.80;1.00;;;;;;5071574;28;20427;-63
2020/12/31 07:42:11;;;;;;;4.63;4.22;;;2.80;1.00;;;;;;5071219;28;20913;-63
2020/12/31 07:44:52;;;;;;;5.20;4.00;;;2.80;1.00;;;;;;5071730;28;20808;-63
2020/12/31 07:47:20;;;;;;;5.50;4.00;;;2.80;1.00;;;;;;5071442;28;20776;-63
2020/12/31 07:49:47;;;;;;;5.00;4.32;;;2.70;99.90;;;;;;5071283;28;20407;-63
2020/12/31 07:52:13;;;;;;;5.38;4.32;;;2.70;1.00;;;;;;5071430;28;20419;-63
2020/12/31 07:54:40;;;;;;;4.93;3.73;;;2.70;1.00;;;;;;5070917;28;20468;-63
2020/12/31 07:57:09;;;;;;;4.57;4.10;;;2.70;1.00;;;;;;5070928;28;21006;-63
2020/12/31 07:59:43;;;;;;;5.85;4.50;;;2.60;1.00;;;;;;5070972;28;20489;-63
2020/12/31 08:02:10;;;;;;;5.15;4.15;;;2.60;1.00;;;;;;5070814;28;20793;-63
2020/12/31 08:04:37;;;;;;;4.10;3.70;;;2.70;1.00;;;;;;5070620;28;20458;-63
2020/12/31 08:07:04;;;;;;;5.43;4.80;;;2.80;1.00;;;;;;5070364;28;20438;-63
2020/12/31 08:09:30;;;;;;;4.97;3.83;;;2.90;1.00;;;;;;5071406;28;20876;-63
2020/12/31 08:11:57;;;;;;;5.13;4.15;;;2.80;1.00;;;;;;5071116;28;20811;-63
2020/12/31 08:14:24;;;;;;;4.10;3.70;;;2.70;1.00;;;;;;5071015;28;20540;-63
2020/12/31 08:17:02;;;;;;;4.70;4.25;;;2.80;1.00;;;;;;5070603;28;20419;-63
2020/12/31 08:19:30;;;;;;;4.40;4.00;;;2.90;1.00;;;;;;5073074;28;20429;-63
2020/12/31 08:22:05;;;;;;;4.10;3.60;;;2.90;1.00;;;;;;5091270;28;20413;-63
2020/12/31 08:24:34;;;;;;;4.07;3.67;;;2.90;1.00;;;;;;5090843;28;20414;-64
2020/12/31 08:27:01;;;;;;;4.50;3.85;;;2.80;1.00;;;;;;5090568;28;20449;-64
2020/12/31 08:29:28;;;;;;;4.22;3.70;;;2.80;1.00;;;;;;5090963;28;20410;-63
2020/12/31 08:31:54;;;;;;;4.68;4.28;;;2.70;1.00;;;;;;5090597;28;20414;-63
2020/12/31 08:34:26;;;;;;;5.32;3.97;;;2.70;1.00;;;;;;5090725;28;20443;-63
2020/12/31 08:36:53;;;;;;;4.40;4.00;;;2.70;1.00;;;;;;5090232;28;20493;-64
2020/12/31 08:39:21;;;;;;;4.10;3.70;;;2.70;1.00;;;;;;5091258;28;20789;-63
2020/12/31 08:41:58;;;;;;;4.30;3.90;;;2.70;1.00;;;;;;5090840;28;20593;-64
2020/12/31 08:44:25;;;;;;;4.22;3.70;;;2.70;1.00;;;;;;5090466;28;20827;-64
2020/12/31 08:46:51;;;;;;;4.60;3.90;;;2.70;1.00;;;;;;5090460;28;20418;-64
2020/12/31 08:49:23;;;;;;;4.77;4.30;;;2.70;1.00;;;;;;5090591;28;20416;-63
2020/12/31 08:51:50;;;;;;;4.70;4.15;;;2.70;1.00;;;;;;5090479;28;20402;-63
2020/12/31 08:54:16;;;;;;;4.15;3.75;;;2.80;1.00;;;;;;5090681;28;20925;-63
2020/12/31 08:56:44;;;;;;;5.95;4.78;;;2.90;1.00;;;;;;5089999;28;20425;-64
2020/12/31 08:59:11;;;;;;;4.65;4.20;;;2.80;1.00;;;;;;5090165;28;20874;-63
2020/12/31 09:01:38;;;;;;;4.75;4.30;;;2.80;1.00;;;;;;5090441;28;20515;-64
2020/12/31 09:04:09;;;;;;;5.65;5.00;;;2.80;1.00;;;;;;5090536;28;20414;-63
2020/12/31 09:06:35;;;;;;;5.65;5.10;;;2.80;1.00;;;;;;5086852;28;20417;-65
2020/12/31 09:09:02;;;;;;;5.30;4.80;;;2.70;1.00;;;;;;5089956;28;20417;-64
2020/12/31 09:11:29;;;;;;;5.53;4.80;;;2.70;1.00;;;;;;5090370;28;20722;-64
2020/12/31 09:14:06;;;;;;;6.25;5.00;;;2.80;1.00;;;;;;5089793;28;20429;-64
2020/12/31 09:16:32;;;;;;;5.70;5.10;;;2.90;1.00;;;;;;5093966;28;20890;-64
2020/12/31 09:19:01;;;;;;;5.72;5.22;;;2.90;1.00;;;;;;5094373;28;20406;-64
2020/12/31 09:21:28;;;;;;;6.07;5.18;;;3.10;1.00;;;;;;5094227;28;20417;-64
2020/12/31 09:23:56;;;;;;;5.73;5.20;;;3.10;1.00;;;;;;5094701;28;20528;-64
2020/12/31 09:26:26;;;;;;;5.60;5.10;;;3.10;1.00;;;;;;5093498;28;20890;-64
2020/12/31 09:28:52;;;;;;;5.68;5.10;;;3.30;99.90;;;;;;5094221;28;20414;-64
2020/12/31 09:31:22;;;;;;;4.80;4.40;;;3.20;99.90;;;;;;5094940;28;20409;-64
2020/12/31 09:33:50;;;;;;;5.80;5.20;;;3.30;99.90;;;;;;5094753;28;20417;-64
2020/12/31 09:36:26;;;;;;;5.67;5.17;;;3.30;99.90;;;;;;5094495;28;20814;-65
2020/12/31 09:38:52;;;;;;;5.72;5.22;;;3.30;99.90;;;;;;5095172;28;20421;-64
2020/12/31 09:41:19;;;;;;;5.88;5.35;;;3.40;99.90;;;;;;5096333;28;20429;-65
2020/12/31 09:43:45;;;;;;;5.70;5.10;;;3.50;99.90;;;;;;5093935;28;20414;-65
2020/12/31 09:46:17;;;;;;;5.72;5.22;;;3.60;99.90;;;;;;5092224;28;20422;-65
2020/12/31 09:48:44;;;;;;;5.80;5.30;;;3.60;99.90;;;;;;5093285;28;20882;-65
2020/12/31 09:51:10;;;;;;;6.28;5.68;;;3.60;99.90;;;;;;5093732;28;21078;-64
2020/12/31 09:53:37;;;;;;;6.30;5.70;;;3.60;99.90;;;;;;5093314;28;20441;-65
2020/12/31 09:56:03;;;;;;;5.70;5.18;;;3.70;99.90;;;;;;5093787;28;20410;-64
2020/12/31 09:58:29;;;;;;;5.80;5.03;;;3.70;99.90;;;;;;5092698;28;20906;-64
2020/12/31 10:00:55;;;;;;;6.45;5.60;;;3.80;99.90;;;;;;5098388;28;20422;-62
2020/12/31 10:03:21;;;;;;;7.50;5.93;;;3.80;99.90;;;;;;5093569;28;20906;-64
2020/12/31 10:05:49;;;;;;;6.40;5.80;;;3.70;99.90;;;;;;5093680;28;20417;-64
2020/12/31 10:08:15;;;;;;;6.18;5.57;;;3.80;99.90;;;;;;5092647;28;20886;-66
2020/12/31 10:10:41;;;;;;;6.03;5.47;;;3.80;99.90;;;;;;5093048;28;20410;-65
2020/12/31 10:13:07;;;;;;;5.80;5.30;;;3.90;99.90;;;;;;5093453;28;20422;-65
2020/12/31 10:15:33;;;;;;;6.20;5.45;;;3.70;91.50;;;;;;5093158;28;20422;-64
2020/12/31 10:17:59;;;;;;;6.22;5.45;;;3.70;99.90;;;;;;5092135;28;20421;-64
2020/12/31 10:20:25;;;;;;;5.60;5.10;;;3.80;99.90;;;;;;5093606;28;20426;-65
2020/12/31 10:22:52;;;;;;;5.80;5.30;;;3.90;92.60;;;;;;5092939;28;20482;-64
2020/12/31 10:25:18;;;;;;;5.93;5.32;;;4.00;46.70;;;;;;5094242;28;20425;-65
2020/12/31 10:27:45;;;;;;;5.55;5.00;;;3.90;40.20;;;;;;5094057;28;20459;-65
2020/12/31 10:30:11;;;;;;;5.70;4.50;;;4.00;56.20;;;;;;5092802;28;20413;-64
2020/12/31 10:32:37;;;;;;;5.70;5.20;;;4.10;46.90;;;;;;5092977;28;20418;-63
2020/12/31 10:35:03;;;;;;;5.00;4.60;;;4.20;28.40;;;;;;5092365;28;20410;-63
2020/12/31 10:37:29;;;;;;;5.40;4.90;;;4.10;1.00;;;;;;5092361;28;20471;-63
2020/12/31 10:39:57;;;;;;;5.43;4.82;;;4.10;1.00;;;;;;5092543;28;20429;-63
2020/12/31 10:42:23;;;;;;;6.00;4.73;;;4.20;1.10;;;;;;5092597;28;20414;-63
2020/12/31 10:44:49;;;;;;;4.80;4.00;;;4.20;1.00;;;;;;5092801;28;20464;-63
2020/12/31 10:47:16;;;;;;;4.60;4.20;;;4.10;1.00;;;;;;5092837;28;20436;-63
2020/12/31 10:49:42;;;;;;;4.35;3.95;;;4.10;1.00;;;;;;5092115;28;20409;-63
2020/12/31 10:52:08;;;;;;;5.07;4.60;;;4.20;1.00;;;;;;5092305;28;20414;-63
2020/12/31 10:54:34;;;;;;;5.00;4.50;;;4.30;1.00;;;;;;5092247;28;20413;-63
2020/12/31 10:57:01;;;;;;;5.55;3.92;;;4.20;1.00;;;;;;5091781;28;20410;-64
2020/12/31 10:59:27;;;;;;;4.80;4.30;;;4.10;1.00;;;;;;5092170;28;20425;-64
2020/12/31 11:01:53;;;;;;;4.20;3.80;;;4.10;1.00;;;;;;5091961;28;20535;-63
2020/12/31 11:04:20;;;;;;;4.30;3.90;;;4.10;1.00;;;;;;5091978;28;21246;-64
2020/12/31 11:06:46;;;;;;;4.18;3.78;;;4.10;1.00;;;;;;5091530;28;20443;-63
2020/12/31 11:09:13;;;;;;;4.40;3.60;;;4.10;1.00;;;;;;5092029;28;20561;-63
2020/12/31 11:11:40;;;;;;;4.97;3.73;;;4.10;1.00;;;;;;5092099;28;20858;-64
2020/12/31 11:14:07;;;;;;;3.77;3.47;;;4.00;1.00;;;;;;5091866;28;20526;-64
2020/12/31 11:16:34;;;;;;;4.10;3.70;;;3.90;1.00;;;;;;5087116;28;20775;-64
2020/12/31 11:19:00;;;;;;;3.63;3.33;;;3.90;1.00;;;;;;5091156;28;20412;-63
2020/12/31 11:21:26;;;;;;;5.53;3.92;;;3.90;1.00;;;;;;5092275;28;20487;-63
2020/12/31 11:23:53;;;;;;;4.10;3.70;;;4.00;1.00;;;;;;5083481;28;20505;-65
2020/12/31 11:26:21;;;;;;;5.10;3.80;;;4.00;1.00;;;;;;5071342;28;20524;-64
2020/12/31 11:28:48;;;;;;;3.70;3.40;;;3.80;1.00;;;;;;5072033;28;20416;-64
2020/12/31 11:31:16;;;;;;;4.00;3.50;;;3.90;1.00;;;;;;5071385;28;20407;-63
2020/12/31 11:33:43;;;;;;;3.47;3.17;;;3.80;1.00;;;;;;5072100;28;20469;-64
2020/12/31 11:36:10;;;;;;;3.95;3.33;;;3.80;1.00;;;;;;5071750;28;20407;-64
2020/12/31 11:38:37;;;;;;;4.95;3.83;;;3.90;1.00;;;;;;5070772;28;20477;-64
2020/12/31 11:41:05;;;;;;;4.15;3.65;;;4.00;1.00;;;;;;5071520;28;20427;-64
2020/12/31 11:43:31;;;;;;;3.60;3.30;;;3.90;1.00;;;;;;5071734;28;20435;-66
2020/12/31 11:45:57;;;;;;;3.97;3.55;;;3.70;1.00;;;;;;5070839;28;20420;-65
2020/12/31 11:48:24;;;;;;;3.50;3.20;;;3.80;1.00;;;;;;5071000;28;20876;-64
2020/12/31 11:50:52;;;;;;;3.70;3.10;;;3.90;1.00;;;;;;5071115;28;20416;-62
2020/12/31 11:53:18;;;;;;;3.72;3.42;;;3.70;1.00;;;;;;5071820;28;20497;-63
2020/12/31 11:55:45;;;;;;;3.35;3.05;;;3.50;1.00;;;;;;5071505;28;20423;-64
2020/12/31 11:58:11;;;;;;;3.30;3.00;;;3.50;1.00;;;;;;5070327;28;20408;-64
2020/12/31 12:00:37;;;;;;;3.20;2.90;;;3.50;4.70;;;;;;5071952;28;20450;-63
2020/12/31 12:03:04;;;;;;;3.38;2.95;;;3.40;34.30;;;;;;5071139;28;20416;-64
2020/12/31 12:05:32;;;;;;;3.40;3.10;;;3.40;68.60;;;;;;5069827;28;22552;-63
2020/12/31 12:07:58;;;;;;;3.25;2.95;;;3.60;76.40;;;;;;5070395;28;20411;-64
2020/12/31 12:10:24;;;;;;;3.38;2.90;;;3.80;77.10;;;;;;5069966;28;20412;-63
2020/12/31 12:12:51;;;;;;;4.03;3.63;;;3.90;43.30;;;;;;5077364;28;20421;-63
2020/12/31 12:15:17;;;;;;;3.30;3.00;;;3.90;26.10;;;;;;5090365;28;20829;-63
2020/12/31 12:17:44;;;;;;;3.20;2.90;;;3.90;1.00;;;;;;5091227;28;20780;-63
2020/12/31 12:20:11;;;;;;;2.90;2.70;;;3.80;1.00;;;;;;5091215;28;20425;-63
2020/12/31 12:22:38;;;;;;;2.90;2.53;;;3.90;1.00;;;;;;5090921;28;20410;-64
2020/12/31 12:25:06;;;;;;;3.00;2.60;;;3.90;1.00;;;;;;5091564;28;20439;-65
2020/12/31 12:27:32;;;;;;;2.70;2.50;;;3.90;1.00;;;;;;5090526;28;20421;-65
2020/12/31 12:29:58;;;;;;;3.10;2.80;;;3.90;1.00;;;;;;5091135;28;20507;-67
2020/12/31 12:32:24;;;;;;;3.00;2.70;;;3.90;1.00;;;;;;5090896;28;20410;-64
2020/12/31 12:34:50;;;;;;;2.58;2.38;;;3.80;1.00;;;;;;5090670;28;20432;-64
2020/12/31 12:37:16;;;;;;;3.10;2.80;;;3.70;1.00;;;;;;5090253;28;20410;-65
2020/12/31 12:39:43;;;;;;;3.20;2.80;;;3.70;1.00;;;;;;5090698;28;20475;-64
2020/12/31 12:42:09;;;;;;;2.80;2.60;;;3.60;3.20;;;;;;5090774;28;20410;-63
2020/12/31 12:44:35;;;;;;;3.00;2.80;;;3.80;33.30;;;;;;5091377;28;20421;-63
2020/12/31 12:47:02;;;;;;;3.10;2.80;;;3.80;29.10;;;;;;5091150;28;20801;-64
2020/12/31 12:49:28;;;;;;;2.97;2.67;;;3.90;31.20;;;;;;5096955;28;20454;-64
2020/12/31 12:51:54;;;;;;;2.72;2.53;;;3.90;1.20;;;;;;5095391;28;20440;-64
2020/12/31 12:54:20;;;;;;;3.00;2.70;;;3.80;1.00;;;;;;5095065;28;20409;-65
2020/12/31 12:56:51;;;;;;;2.70;2.50;;;3.90;13.00;;;;;;5094110;28;20413;-65
2020/12/31 12:59:18;;;;;;;2.70;2.40;;;4.00;1.50;;;;;;5094860;28;20493;-64
2020/12/31 13:01:44;;;;;;;2.30;2.10;;;4.10;1.00;;;;;;5094941;28;20497;-65
2020/12/31 13:04:10;;;;;;;2.72;2.50;;;3.90;1.00;;;;;;5095021;28;20782;-65